Alameda, CA (94501)

9:13 PM PST on December 08, 2016 (GMT -0800)
Encinal & Lafayette | | Change Station

Elev 15 ft 37.77 °N, 122.26 °W | Updated 3 seconds ago

Overcast
Overcast
57.3 °F
Feels Like 57.3 °F
N
1.2
Wind Variable Wind from SSW
Gusts 1.2 mph

Today
High -- | Low -- °F
--% Chance of Precip.
Yesterday
High -- | Low -- °F
Precip. -- in
Pressure 30.18 in
Visibility 8.0 miles
Clouds Few 700 ft
Mostly Cloudy 1400 ft
Overcast 1900 ft
Dew Point 55 °F
Humidity 91%
Rainfall 0.14 in
Snow Depth Not available.
7:12 AM 4:50 PM
Waxing Gibbous, 70% visible
SPECI KOAK 090507Z 15003KT 8SM FEW007 BKN014 OVC019 14/14 A3018 RMK AO2 RAE00 P0001 T01440139
Pressure 30.18 in
Visibility 8.0 miles
Clouds Few 700 ft
Mostly Cloudy 1400 ft
Overcast 1900 ft
Dew Point 55 °F
Humidity 91%
Rainfall 0.14 in
Snow Depth Not available.
7:12 AM 4:50 PM
Waxing Gibbous, 70% visible
SPECI KOAK 090507Z 15003KT 8SM FEW007 BKN014 OVC019 14/14 A3018 RMK AO2 RAE00 P0001 T01440139

10-Day Weather Forecast

Almanac

Astronomy

Dec. 08, 2016 Rise Set
Actual Time
Civil Twilight
Nautical Twilight
Astronomical Twilight
Moon
Length of Visible Light
Length of Day
Tomorrow will be .
, % of the Moon is Illuminated

Today's Extremes

State Highs State Lows

Community

WunderPhotos

Upload Photos

1,956,370 photos uploaded!

WunderBlog® & News

Nearby

Air Quality

  Air Quality AQ Index Pollutant
Not available.

Snow Depth

Station Depth Elevation

Earthquake Activity

City Distance Mag. Time & Date
Minimum magnitude displayed is 2.5.

Coastal Water Temperatures

Place Temperature

Stations

Nearby Weather Stations

Station Location Temp. Windchill Dew Point Humidity Wind Precip. Elev Updated Type
                   

Watches & Warnings

There are currently no watches in effect.